sensor_id;sensor_type;location;lat;lon;timestamp;P1;durP1;ratioP1;P2;durP2;ratioP2
74656;SDS011;63185;45.642;13.764;2023-01-29T00:01:48;17.65;;;8.52;;
74656;SDS011;63185;45.642;13.764;2023-01-29T00:04:14;20.73;;;9.60;;
74656;SDS011;63185;45.642;13.764;2023-01-29T00:06:41;17.33;;;9.00;;
74656;SDS011;63185;45.642;13.764;2023-01-29T00:09:07;18.45;;;9.27;;
74656;SDS011;63185;45.642;13.764;2023-01-29T00:11:32;20.00;;;10.20;;
74656;SDS011;63185;45.642;13.764;2023-01-29T00:13:59;17.25;;;9.10;;
74656;SDS011;63185;45.642;13.764;2023-01-29T00:16:25;19.67;;;9.70;;
74656;SDS011;63185;45.642;13.764;2023-01-29T00:18:50;19.30;;;9.18;;
74656;SDS011;63185;45.642;13.764;2023-01-29T00:21:17;17.63;;;9.32;;
74656;SDS011;63185;45.642;13.764;2023-01-29T00:23:46;19.50;;;9.05;;
74656;SDS011;63185;45.642;13.764;2023-01-29T00:26:12;18.67;;;9.40;;
74656;SDS011;63185;45.642;13.764;2023-01-29T00:28:38;18.83;;;9.15;;
74656;SDS011;63185;45.642;13.764;2023-01-29T00:31:07;17.35;;;8.90;;
74656;SDS011;63185;45.642;13.764;2023-01-29T00:33:34;18.80;;;9.38;;
74656;SDS011;63185;45.642;13.764;2023-01-29T00:36:04;17.67;;;8.85;;
74656;SDS011;63185;45.642;13.764;2023-01-29T00:38:31;19.00;;;9.50;;
74656;SDS011;63185;45.642;13.764;2023-01-29T00:41:04;21.20;;;9.20;;
74656;SDS011;63185;45.642;13.764;2023-01-29T00:43:58;17.85;;;8.52;;
74656;SDS011;63185;45.642;13.764;2023-01-29T00:46:44;20.13;;;9.15;;
74656;SDS011;63185;45.642;13.764;2023-01-29T00:49:10;20.35;;;10.27;;
74656;SDS011;63185;45.642;13.764;2023-01-29T00:51:36;19.83;;;10.35;;
74656;SDS011;63185;45.642;13.764;2023-01-29T00:54:03;23.20;;;11.05;;
74656;SDS011;63185;45.642;13.764;2023-01-29T00:56:31;20.05;;;10.50;;
74656;SDS011;63185;45.642;13.764;2023-01-29T00:58:57;18.95;;;10.13;;
74656;SDS011;63185;45.642;13.764;2023-01-29T01:01:23;23.33;;;11.02;;
74656;SDS011;63185;45.642;13.764;2023-01-29T01:04:09;21.48;;;10.32;;
74656;SDS011;63185;45.642;13.764;2023-01-29T01:06:36;19.58;;;9.85;;
74656;SDS011;63185;45.642;13.764;2023-01-29T01:09:03;20.58;;;9.88;;
74656;SDS011;63185;45.642;13.764;2023-01-29T01:11:48;20.95;;;10.88;;
74656;SDS011;63185;45.642;13.764;2023-01-29T01:14:15;22.02;;;10.88;;
74656;SDS011;63185;45.642;13.764;2023-01-29T01:16:41;21.02;;;10.13;;
74656;SDS011;63185;45.642;13.764;2023-01-29T01:19:08;21.80;;;11.00;;
74656;SDS011;63185;45.642;13.764;2023-01-29T01:21:34;20.33;;;9.40;;
74656;SDS011;63185;45.642;13.764;2023-01-29T01:24:00;22.33;;;10.65;;
74656;SDS011;63185;45.642;13.764;2023-01-29T01:26:26;23.83;;;11.20;;
74656;SDS011;63185;45.642;13.764;2023-01-29T01:28:51;22.42;;;11.27;;
74656;SDS011;63185;45.642;13.764;2023-01-29T01:31:17;23.58;;;10.63;;
74656;SDS011;63185;45.642;13.764;2023-01-29T01:33:43;22.13;;;10.50;;
74656;SDS011;63185;45.642;13.764;2023-01-29T01:36:09;26.88;;;12.70;;
74656;SDS011;63185;45.642;13.764;2023-01-29T01:38:37;24.40;;;12.20;;
74656;SDS011;63185;45.642;13.764;2023-01-29T01:41:12;23.02;;;11.38;;
74656;SDS011;63185;45.642;13.764;2023-01-29T01:43:53;23.95;;;10.85;;
74656;SDS011;63185;45.642;13.764;2023-01-29T01:46:25;24.55;;;10.57;;
74656;SDS011;63185;45.642;13.764;2023-01-29T01:48:55;25.85;;;11.68;;
74656;SDS011;63185;45.642;13.764;2023-01-29T01:51:27;25.10;;;12.10;;
74656;SDS011;63185;45.642;13.764;2023-01-29T01:54:11;23.83;;;11.10;;
74656;SDS011;63185;45.642;13.764;2023-01-29T01:56:50;23.70;;;10.70;;
74656;SDS011;63185;45.642;13.764;2023-01-29T01:59:20;24.65;;;11.80;;
74656;SDS011;63185;45.642;13.764;2023-01-29T02:01:48;23.70;;;10.98;;
74656;SDS011;63185;45.642;13.764;2023-01-29T02:04:21;25.73;;;11.30;;
74656;SDS011;63185;45.642;13.764;2023-01-29T02:07:09;22.40;;;10.48;;
74656;SDS011;63185;45.642;13.764;2023-01-29T02:10:10;23.40;;;10.70;;
74656;SDS011;63185;45.642;13.764;2023-01-29T02:12:39;21.27;;;9.77;;
74656;SDS011;63185;45.642;13.764;2023-01-29T02:15:06;20.88;;;9.85;;
74656;SDS011;63185;45.642;13.764;2023-01-29T02:17:33;21.10;;;10.25;;
74656;SDS011;63185;45.642;13.764;2023-01-29T02:34:15;21.92;;;9.85;;
74656;SDS011;63185;45.642;13.764;2023-01-29T02:37:07;22.17;;;10.55;;
74656;SDS011;63185;45.642;13.764;2023-01-29T02:42:15;18.25;;;9.45;;
74656;SDS011;63185;45.642;13.764;2023-01-29T02:47:44;21.67;;;9.98;;
74656;SDS011;63185;45.642;13.764;2023-01-29T02:50:42;19.48;;;9.57;;
74656;SDS011;63185;45.642;13.764;2023-01-29T02:53:25;20.85;;;10.00;;
74656;SDS011;63185;45.642;13.764;2023-01-29T02:55:59;18.15;;;8.90;;
74656;SDS011;63185;45.642;13.764;2023-01-29T02:58:35;19.58;;;9.38;;
74656;SDS011;63185;45.642;13.764;2023-01-29T03:01:12;19.55;;;9.63;;
74656;SDS011;63185;45.642;13.764;2023-01-29T03:03:43;18.20;;;9.60;;
74656;SDS011;63185;45.642;13.764;2023-01-29T03:09:06;17.80;;;8.90;;
74656;SDS011;63185;45.642;13.764;2023-01-29T03:11:51;16.90;;;8.65;;
74656;SDS011;63185;45.642;13.764;2023-01-29T03:14:32;18.52;;;9.90;;
74656;SDS011;63185;45.642;13.764;2023-01-29T03:17:26;19.20;;;10.02;;
74656;SDS011;63185;45.642;13.764;2023-01-29T03:19:58;20.92;;;10.60;;
74656;SDS011;63185;45.642;13.764;2023-01-29T03:22:24;22.85;;;10.32;;
74656;SDS011;63185;45.642;13.764;2023-01-29T03:24:56;19.73;;;9.15;;
74656;SDS011;63185;45.642;13.764;2023-01-29T03:27:43;17.15;;;8.75;;
74656;SDS011;63185;45.642;13.764;2023-01-29T03:30:32;16.90;;;8.70;;
74656;SDS011;63185;45.642;13.764;2023-01-29T03:33:20;15.23;;;8.23;;
74656;SDS011;63185;45.642;13.764;2023-01-29T03:35:55;18.48;;;9.35;;
74656;SDS011;63185;45.642;13.764;2023-01-29T03:38:26;18.73;;;9.50;;
74656;SDS011;63185;45.642;13.764;2023-01-29T03:43:46;17.85;;;9.05;;
74656;SDS011;63185;45.642;13.764;2023-01-29T03:46:35;18.35;;;9.55;;
74656;SDS011;63185;45.642;13.764;2023-01-29T03:49:20;19.10;;;9.20;;
74656;SDS011;63185;45.642;13.764;2023-01-29T03:52:05;18.83;;;9.23;;
74656;SDS011;63185;45.642;13.764;2023-01-29T03:55:09;22.77;;;9.90;;
74656;SDS011;63185;45.642;13.764;2023-01-29T03:57:48;18.38;;;9.18;;
74656;SDS011;63185;45.642;13.764;2023-01-29T04:00:33;17.48;;;8.45;;
74656;SDS011;63185;45.642;13.764;2023-01-29T04:05:43;17.45;;;9.20;;
74656;SDS011;63185;45.642;13.764;2023-01-29T04:08:34;16.95;;;7.88;;
74656;SDS011;63185;45.642;13.764;2023-01-29T04:11:21;16.08;;;8.05;;
74656;SDS011;63185;45.642;13.764;2023-01-29T04:13:48;17.00;;;8.13;;
74656;SDS011;63185;45.642;13.764;2023-01-29T04:16:17;16.33;;;8.48;;
74656;SDS011;63185;45.642;13.764;2023-01-29T04:18:47;17.80;;;8.55;;
74656;SDS011;63185;45.642;13.764;2023-01-29T04:21:13;19.30;;;9.55;;
74656;SDS011;63185;45.642;13.764;2023-01-29T04:23:40;16.25;;;8.45;;
74656;SDS011;63185;45.642;13.764;2023-01-29T04:26:18;19.52;;;9.32;;
74656;SDS011;63185;45.642;13.764;2023-01-29T04:31:49;16.52;;;8.60;;
74656;SDS011;63185;45.642;13.764;2023-01-29T04:37:38;16.40;;;8.65;;
74656;SDS011;63185;45.642;13.764;2023-01-29T04:43:07;17.80;;;9.02;;
74656;SDS011;63185;45.642;13.764;2023-01-29T04:48:25;17.92;;;9.13;;
74656;SDS011;63185;45.642;13.764;2023-01-29T04:51:12;19.42;;;9.13;;
74656;SDS011;63185;45.642;13.764;2023-01-29T04:56:33;18.98;;;9.18;;
74656;SDS011;63185;45.642;13.764;2023-01-29T04:59:22;16.15;;;8.43;;
74656;SDS011;63185;45.642;13.764;2023-01-29T05:02:03;14.63;;;7.55;;
74656;SDS011;63185;45.642;13.764;2023-01-29T05:04:32;16.00;;;7.68;;
74656;SDS011;63185;45.642;13.764;2023-01-29T05:07:03;17.52;;;8.48;;
74656;SDS011;63185;45.642;13.764;2023-01-29T05:09:32;17.63;;;7.90;;
74656;SDS011;63185;45.642;13.764;2023-01-29T05:11:59;16.38;;;8.68;;
74656;SDS011;63185;45.642;13.764;2023-01-29T05:14:26;19.05;;;9.40;;
74656;SDS011;63185;45.642;13.764;2023-01-29T05:16:54;16.83;;;8.50;;
74656;SDS011;63185;45.642;13.764;2023-01-29T05:19:24;14.50;;;7.90;;
74656;SDS011;63185;45.642;13.764;2023-01-29T05:21:50;16.70;;;8.15;;
74656;SDS011;63185;45.642;13.764;2023-01-29T05:24:20;15.02;;;7.85;;
74656;SDS011;63185;45.642;13.764;2023-01-29T05:26:48;17.08;;;8.15;;
74656;SDS011;63185;45.642;13.764;2023-01-29T05:29:33;16.63;;;8.25;;
74656;SDS011;63185;45.642;13.764;2023-01-29T05:31:59;15.77;;;8.63;;
74656;SDS011;63185;45.642;13.764;2023-01-29T05:34:25;17.58;;;8.63;;
74656;SDS011;63185;45.642;13.764;2023-01-29T05:36:51;21.58;;;8.55;;
74656;SDS011;63185;45.642;13.764;2023-01-29T05:39:17;19.85;;;8.73;;
74656;SDS011;63185;45.642;13.764;2023-01-29T05:41:43;18.92;;;9.63;;
74656;SDS011;63185;45.642;13.764;2023-01-29T05:44:09;17.40;;;9.05;;
74656;SDS011;63185;45.642;13.764;2023-01-29T05:46:35;18.75;;;9.32;;
74656;SDS011;63185;45.642;13.764;2023-01-29T05:49:01;17.85;;;9.02;;
74656;SDS011;63185;45.642;13.764;2023-01-29T05:51:27;20.17;;;9.80;;
74656;SDS011;63185;45.642;13.764;2023-01-29T05:53:53;20.45;;;9.32;;
74656;SDS011;63185;45.642;13.764;2023-01-29T05:56:19;16.48;;;8.80;;
74656;SDS011;63185;45.642;13.764;2023-01-29T05:58:45;17.35;;;9.02;;
74656;SDS011;63185;45.642;13.764;2023-01-29T06:01:11;18.70;;;8.75;;
74656;SDS011;63185;45.642;13.764;2023-01-29T06:03:42;18.58;;;9.20;;
74656;SDS011;63185;45.642;13.764;2023-01-29T06:06:08;15.85;;;8.30;;
74656;SDS011;63185;45.642;13.764;2023-01-29T06:08:34;17.02;;;8.82;;
74656;SDS011;63185;45.642;13.764;2023-01-29T06:11:00;16.83;;;9.35;;
74656;SDS011;63185;45.642;13.764;2023-01-29T06:13:25;18.33;;;8.77;;
74656;SDS011;63185;45.642;13.764;2023-01-29T06:15:51;16.15;;;8.80;;
74656;SDS011;63185;45.642;13.764;2023-01-29T06:18:17;18.95;;;8.63;;
74656;SDS011;63185;45.642;13.764;2023-01-29T06:20:43;20.67;;;9.23;;
74656;SDS011;63185;45.642;13.764;2023-01-29T06:23:08;17.23;;;9.13;;
74656;SDS011;63185;45.642;13.764;2023-01-29T06:25:34;19.60;;;9.25;;
74656;SDS011;63185;45.642;13.764;2023-01-29T06:28:00;18.80;;;8.82;;
74656;SDS011;63185;45.642;13.764;2023-01-29T06:30:26;16.10;;;8.45;;
74656;SDS011;63185;45.642;13.764;2023-01-29T06:32:55;18.70;;;8.77;;
74656;SDS011;63185;45.642;13.764;2023-01-29T06:35:23;17.02;;;8.65;;
74656;SDS011;63185;45.642;13.764;2023-01-29T06:37:51;17.43;;;8.60;;
74656;SDS011;63185;45.642;13.764;2023-01-29T06:40:17;16.90;;;8.50;;
74656;SDS011;63185;45.642;13.764;2023-01-29T06:42:43;17.02;;;8.93;;
74656;SDS011;63185;45.642;13.764;2023-01-29T06:45:09;16.05;;;8.38;;
74656;SDS011;63185;45.642;13.764;2023-01-29T06:47:35;17.73;;;8.80;;
74656;SDS011;63185;45.642;13.764;2023-01-29T06:50:00;16.38;;;8.32;;
74656;SDS011;63185;45.642;13.764;2023-01-29T06:52:26;19.85;;;9.57;;
74656;SDS011;63185;45.642;13.764;2023-01-29T06:54:53;15.63;;;8.07;;
74656;SDS011;63185;45.642;13.764;2023-01-29T06:57:19;15.55;;;8.15;;
74656;SDS011;63185;45.642;13.764;2023-01-29T06:59:45;17.02;;;8.65;;
74656;SDS011;63185;45.642;13.764;2023-01-29T07:02:11;16.58;;;7.47;;
74656;SDS011;63185;45.642;13.764;2023-01-29T07:04:37;17.50;;;8.07;;
74656;SDS011;63185;45.642;13.764;2023-01-29T07:07:03;18.70;;;9.40;;
74656;SDS011;63185;45.642;13.764;2023-01-29T07:09:29;16.40;;;8.38;;
74656;SDS011;63185;45.642;13.764;2023-01-29T07:11:55;19.40;;;9.23;;
74656;SDS011;63185;45.642;13.764;2023-01-29T07:14:21;19.55;;;9.68;;
74656;SDS011;63185;45.642;13.764;2023-01-29T07:16:46;16.50;;;9.02;;
74656;SDS011;63185;45.642;13.764;2023-01-29T07:19:12;15.60;;;8.52;;
74656;SDS011;63185;45.642;13.764;2023-01-29T07:21:38;17.35;;;8.30;;
74656;SDS011;63185;45.642;13.764;2023-01-29T07:24:03;15.82;;;8.27;;
74656;SDS011;63185;45.642;13.764;2023-01-29T07:26:29;15.73;;;7.88;;
74656;SDS011;63185;45.642;13.764;2023-01-29T07:28:55;15.50;;;8.05;;
74656;SDS011;63185;45.642;13.764;2023-01-29T07:31:21;16.63;;;9.07;;
74656;SDS011;63185;45.642;13.764;2023-01-29T07:33:46;14.70;;;7.97;;
74656;SDS011;63185;45.642;13.764;2023-01-29T07:36:12;16.30;;;8.38;;
74656;SDS011;63185;45.642;13.764;2023-01-29T07:38:38;16.15;;;8.00;;
74656;SDS011;63185;45.642;13.764;2023-01-29T07:41:04;15.85;;;8.38;;
74656;SDS011;63185;45.642;13.764;2023-01-29T07:43:30;15.82;;;8.35;;
74656;SDS011;63185;45.642;13.764;2023-01-29T07:45:59;18.02;;;8.85;;
74656;SDS011;63185;45.642;13.764;2023-01-29T07:48:27;16.67;;;8.50;;
74656;SDS011;63185;45.642;13.764;2023-01-29T07:50:56;15.75;;;8.50;;
74656;SDS011;63185;45.642;13.764;2023-01-29T07:55:48;18.50;;;8.85;;
74656;SDS011;63185;45.642;13.764;2023-01-29T07:58:14;14.75;;;7.80;;
74656;SDS011;63185;45.642;13.764;2023-01-29T08:00:40;19.02;;;9.75;;
74656;SDS011;63185;45.642;13.764;2023-01-29T08:03:11;21.75;;;11.18;;
74656;SDS011;63185;45.642;13.764;2023-01-29T08:05:40;21.70;;;9.90;;
74656;SDS011;63185;45.642;13.764;2023-01-29T08:08:06;22.65;;;10.70;;
74656;SDS011;63185;45.642;13.764;2023-01-29T08:10:31;18.15;;;9.05;;
74656;SDS011;63185;45.642;13.764;2023-01-29T08:12:58;15.98;;;7.85;;
74656;SDS011;63185;45.642;13.764;2023-01-29T08:15:25;14.02;;;7.40;;
74656;SDS011;63185;45.642;13.764;2023-01-29T08:17:52;15.18;;;7.80;;
74656;SDS011;63185;45.642;13.764;2023-01-29T08:20:18;16.25;;;7.88;;
74656;SDS011;63185;45.642;13.764;2023-01-29T08:22:44;16.35;;;8.25;;
74656;SDS011;63185;45.642;13.764;2023-01-29T08:25:10;13.60;;;7.43;;
74656;SDS011;63185;45.642;13.764;2023-01-29T08:27:36;15.35;;;7.68;;
74656;SDS011;63185;45.642;13.764;2023-01-29T08:30:02;15.98;;;8.00;;
74656;SDS011;63185;45.642;13.764;2023-01-29T08:32:29;16.00;;;7.72;;
74656;SDS011;63185;45.642;13.764;2023-01-29T08:34:54;15.93;;;8.15;;
74656;SDS011;63185;45.642;13.764;2023-01-29T08:37:20;15.00;;;7.55;;
74656;SDS011;63185;45.642;13.764;2023-01-29T08:39:46;16.38;;;8.00;;
74656;SDS011;63185;45.642;13.764;2023-01-29T08:42:11;13.57;;;7.15;;
74656;SDS011;63185;45.642;13.764;2023-01-29T08:44:37;13.82;;;7.57;;
74656;SDS011;63185;45.642;13.764;2023-01-29T08:47:03;14.85;;;7.72;;
74656;SDS011;63185;45.642;13.764;2023-01-29T08:49:29;11.52;;;5.97;;
74656;SDS011;63185;45.642;13.764;2023-01-29T08:51:55;13.85;;;7.80;;
74656;SDS011;63185;45.642;13.764;2023-01-29T08:54:21;13.13;;;7.10;;
74656;SDS011;63185;45.642;13.764;2023-01-29T08:56:47;14.02;;;7.38;;
74656;SDS011;63185;45.642;13.764;2023-01-29T08:59:13;15.25;;;7.80;;
74656;SDS011;63185;45.642;13.764;2023-01-29T09:01:39;14.00;;;7.75;;
74656;SDS011;63185;45.642;13.764;2023-01-29T09:04:04;14.02;;;7.38;;
74656;SDS011;63185;45.642;13.764;2023-01-29T09:06:30;12.20;;;7.03;;
74656;SDS011;63185;45.642;13.764;2023-01-29T09:08:56;14.90;;;7.90;;
74656;SDS011;63185;45.642;13.764;2023-01-29T09:11:23;14.65;;;7.22;;
74656;SDS011;63185;45.642;13.764;2023-01-29T09:13:48;13.95;;;6.78;;
74656;SDS011;63185;45.642;13.764;2023-01-29T09:16:14;13.02;;;6.82;;
74656;SDS011;63185;45.642;13.764;2023-01-29T09:18:40;13.60;;;7.03;;
74656;SDS011;63185;45.642;13.764;2023-01-29T09:21:05;15.10;;;7.82;;
74656;SDS011;63185;45.642;13.764;2023-01-29T09:23:31;15.63;;;7.65;;
74656;SDS011;63185;45.642;13.764;2023-01-29T09:25:57;21.42;;;9.10;;
74656;SDS011;63185;45.642;13.764;2023-01-29T09:28:23;20.88;;;9.02;;
74656;SDS011;63185;45.642;13.764;2023-01-29T09:30:49;15.38;;;7.82;;
74656;SDS011;63185;45.642;13.764;2023-01-29T09:33:15;13.80;;;7.57;;
74656;SDS011;63185;45.642;13.764;2023-01-29T09:35:41;15.10;;;7.80;;
74656;SDS011;63185;45.642;13.764;2023-01-29T09:38:08;15.15;;;8.07;;
74656;SDS011;63185;45.642;13.764;2023-01-29T09:40:37;12.45;;;7.03;;
74656;SDS011;63185;45.642;13.764;2023-01-29T09:43:18;15.50;;;7.75;;
74656;SDS011;63185;45.642;13.764;2023-01-29T09:46:13;12.40;;;7.05;;
74656;SDS011;63185;45.642;13.764;2023-01-29T09:48:46;14.68;;;7.65;;
74656;SDS011;63185;45.642;13.764;2023-01-29T09:52:00;14.50;;;7.22;;
74656;SDS011;63185;45.642;13.764;2023-01-29T09:56:36;13.95;;;7.07;;
74656;SDS011;63185;45.642;13.764;2023-01-29T09:59:01;13.55;;;7.47;;
74656;SDS011;63185;45.642;13.764;2023-01-29T10:01:32;15.32;;;8.05;;
74656;SDS011;63185;45.642;13.764;2023-01-29T10:04:12;14.57;;;7.50;;
74656;SDS011;63185;45.642;13.764;2023-01-29T10:09:38;12.60;;;7.47;;
74656;SDS011;63185;45.642;13.764;2023-01-29T10:23:33;12.80;;;6.70;;
74656;SDS011;63185;45.642;13.764;2023-01-29T10:26:02;12.57;;;6.90;;
74656;SDS011;63185;45.642;13.764;2023-01-29T10:28:30;12.98;;;6.38;;
74656;SDS011;63185;45.642;13.764;2023-01-29T10:33:53;11.73;;;6.45;;
74656;SDS011;63185;45.642;13.764;2023-01-29T10:36:24;11.65;;;6.18;;
74656;SDS011;63185;45.642;13.764;2023-01-29T10:38:56;11.43;;;6.57;;
74656;SDS011;63185;45.642;13.764;2023-01-29T10:41:25;10.40;;;5.72;;
74656;SDS011;63185;45.642;13.764;2023-01-29T10:44:17;10.23;;;5.10;;
74656;SDS011;63185;45.642;13.764;2023-01-29T11:01:09;9.85;;;5.72;;
74656;SDS011;63185;45.642;13.764;2023-01-29T11:03:35;9.93;;;5.20;;
74656;SDS011;63185;45.642;13.764;2023-01-29T11:06:12;9.38;;;4.35;;
74656;SDS011;63185;45.642;13.764;2023-01-29T11:11:38;8.10;;;4.28;;
74656;SDS011;63185;45.642;13.764;2023-01-29T11:14:27;11.55;;;5.07;;
74656;SDS011;63185;45.642;13.764;2023-01-29T11:16:57;9.02;;;5.00;;
74656;SDS011;63185;45.642;13.764;2023-01-29T11:19:42;8.65;;;4.90;;
74656;SDS011;63185;45.642;13.764;2023-01-29T11:22:19;8.60;;;5.05;;
74656;SDS011;63185;45.642;13.764;2023-01-29T11:27:32;12.77;;;5.90;;
74656;SDS011;63185;45.642;13.764;2023-01-29T11:29:59;13.40;;;6.32;;
74656;SDS011;63185;45.642;13.764;2023-01-29T11:32:29;10.30;;;5.50;;
74656;SDS011;63185;45.642;13.764;2023-01-29T11:35:00;21.73;;;5.78;;
74656;SDS011;63185;45.642;13.764;2023-01-29T11:37:36;12.38;;;5.97;;
74656;SDS011;63185;45.642;13.764;2023-01-29T11:42:53;8.38;;;4.15;;
74656;SDS011;63185;45.642;13.764;2023-01-29T11:47:48;9.90;;;5.15;;
74656;SDS011;63185;45.642;13.764;2023-01-29T11:50:22;9.20;;;4.65;;
74656;SDS011;63185;45.642;13.764;2023-01-29T11:52:52;9.80;;;5.03;;
74656;SDS011;63185;45.642;13.764;2023-01-29T11:55:20;9.48;;;4.30;;
74656;SDS011;63185;45.642;13.764;2023-01-29T11:57:49;9.82;;;5.68;;
74656;SDS011;63185;45.642;13.764;2023-01-29T12:00:39;9.63;;;5.57;;
74656;SDS011;63185;45.642;13.764;2023-01-29T12:05:40;9.48;;;4.65;;
74656;SDS011;63185;45.642;13.764;2023-01-29T12:08:18;8.80;;;4.80;;
74656;SDS011;63185;45.642;13.764;2023-01-29T12:10:46;9.80;;;5.18;;
74656;SDS011;63185;45.642;13.764;2023-01-29T12:15:43;10.43;;;5.55;;
74656;SDS011;63185;45.642;13.764;2023-01-29T12:26:29;9.05;;;4.78;;
74656;SDS011;63185;45.642;13.764;2023-01-29T12:34:25;7.35;;;4.32;;
74656;SDS011;63185;45.642;13.764;2023-01-29T12:37:03;8.73;;;4.90;;
74656;SDS011;63185;45.642;13.764;2023-01-29T12:39:41;8.63;;;4.85;;
74656;SDS011;63185;45.642;13.764;2023-01-29T12:42:17;8.90;;;5.50;;
74656;SDS011;63185;45.642;13.764;2023-01-29T12:44:55;10.73;;;6.10;;
74656;SDS011;63185;45.642;13.764;2023-01-29T12:47:27;10.75;;;5.47;;
74656;SDS011;63185;45.642;13.764;2023-01-29T12:50:05;9.23;;;4.95;;
74656;SDS011;63185;45.642;13.764;2023-01-29T12:52:40;9.63;;;5.15;;
74656;SDS011;63185;45.642;13.764;2023-01-29T12:55:17;9.98;;;5.00;;
74656;SDS011;63185;45.642;13.764;2023-01-29T12:57:55;10.68;;;5.53;;
74656;SDS011;63185;45.642;13.764;2023-01-29T13:00:27;8.57;;;4.57;;
74656;SDS011;63185;45.642;13.764;2023-01-29T13:03:08;8.95;;;4.85;;
74656;SDS011;63185;45.642;13.764;2023-01-29T13:05:44;11.98;;;5.90;;
74656;SDS011;63185;45.642;13.764;2023-01-29T13:08:14;9.50;;;5.00;;
74656;SDS011;63185;45.642;13.764;2023-01-29T13:10:45;10.05;;;4.97;;
74656;SDS011;63185;45.642;13.764;2023-01-29T13:16:00;11.75;;;6.03;;
74656;SDS011;63185;45.642;13.764;2023-01-29T13:21:01;10.52;;;5.25;;
74656;SDS011;63185;45.642;13.764;2023-01-29T13:26:04;9.52;;;5.03;;
74656;SDS011;63185;45.642;13.764;2023-01-29T13:28:30;10.38;;;5.35;;
74656;SDS011;63185;45.642;13.764;2023-01-29T13:33:54;8.95;;;4.97;;
74656;SDS011;63185;45.642;13.764;2023-01-29T13:36:23;9.70;;;5.10;;
74656;SDS011;63185;45.642;13.764;2023-01-29T13:38:57;8.35;;;4.65;;
74656;SDS011;63185;45.642;13.764;2023-01-29T13:41:33;10.40;;;5.07;;
74656;SDS011;63185;45.642;13.764;2023-01-29T13:44:03;10.05;;;5.63;;
74656;SDS011;63185;45.642;13.764;2023-01-29T13:46:31;11.25;;;5.85;;
74656;SDS011;63185;45.642;13.764;2023-01-29T13:48:57;9.85;;;5.63;;
74656;SDS011;63185;45.642;13.764;2023-01-29T13:51:30;9.60;;;4.90;;
74656;SDS011;63185;45.642;13.764;2023-01-29T13:54:07;9.10;;;4.72;;
74656;SDS011;63185;45.642;13.764;2023-01-29T13:56:43;10.80;;;5.60;;
74656;SDS011;63185;45.642;13.764;2023-01-29T13:59:20;9.50;;;5.55;;
74656;SDS011;63185;45.642;13.764;2023-01-29T14:04:19;8.93;;;5.00;;
74656;SDS011;63185;45.642;13.764;2023-01-29T14:06:53;9.27;;;5.25;;
74656;SDS011;63185;45.642;13.764;2023-01-29T14:12:01;8.05;;;4.45;;
74656;SDS011;63185;45.642;13.764;2023-01-29T14:17:12;9.68;;;5.25;;
74656;SDS011;63185;45.642;13.764;2023-01-29T14:19:49;10.18;;;5.38;;
74656;SDS011;63185;45.642;13.764;2023-01-29T14:22:21;10.80;;;5.30;;
74656;SDS011;63185;45.642;13.764;2023-01-29T14:24:48;10.45;;;5.65;;
74656;SDS011;63185;45.642;13.764;2023-01-29T14:27:21;9.13;;;5.43;;
74656;SDS011;63185;45.642;13.764;2023-01-29T14:29:51;10.85;;;5.90;;
74656;SDS011;63185;45.642;13.764;2023-01-29T14:32:24;9.73;;;5.35;;
74656;SDS011;63185;45.642;13.764;2023-01-29T14:34:52;10.57;;;5.65;;
74656;SDS011;63185;45.642;13.764;2023-01-29T14:37:35;11.80;;;6.00;;
74656;SDS011;63185;45.642;13.764;2023-01-29T14:42:36;11.20;;;6.03;;
74656;SDS011;63185;45.642;13.764;2023-01-29T14:45:19;11.48;;;5.65;;
74656;SDS011;63185;45.642;13.764;2023-01-29T15:00:58;10.95;;;6.50;;
74656;SDS011;63185;45.642;13.764;2023-01-29T15:03:41;12.00;;;6.20;;
74656;SDS011;63185;45.642;13.764;2023-01-29T15:06:26;10.85;;;6.53;;
74656;SDS011;63185;45.642;13.764;2023-01-29T15:09:04;9.85;;;5.95;;
74656;SDS011;63185;45.642;13.764;2023-01-29T15:14:31;11.57;;;7.15;;
74656;SDS011;63185;45.642;13.764;2023-01-29T15:19:34;9.40;;;6.13;;
74656;SDS011;63185;45.642;13.764;2023-01-29T15:22:15;11.35;;;7.25;;
74656;SDS011;63185;45.642;13.764;2023-01-29T15:24:42;20.88;;;6.95;;
74656;SDS011;63185;45.642;13.764;2023-01-29T15:27:16;15.23;;;6.88;;
74656;SDS011;63185;45.642;13.764;2023-01-29T15:29:52;11.20;;;5.10;;
74656;SDS011;63185;45.642;13.764;2023-01-29T15:32:25;10.18;;;5.82;;
74656;SDS011;63185;45.642;13.764;2023-01-29T15:35:00;9.65;;;5.47;;
74656;SDS011;63185;45.642;13.764;2023-01-29T15:37:57;11.32;;;6.20;;
74656;SDS011;63185;45.642;13.764;2023-01-29T15:43:19;9.80;;;6.00;;
74656;SDS011;63185;45.642;13.764;2023-01-29T15:45:46;13.55;;;8.27;;
74656;SDS011;63185;45.642;13.764;2023-01-29T15:48:14;10.65;;;6.45;;
74656;SDS011;63185;45.642;13.764;2023-01-29T15:50:46;14.77;;;6.95;;
74656;SDS011;63185;45.642;13.764;2023-01-29T15:53:16;13.48;;;7.75;;
74656;SDS011;63185;45.642;13.764;2023-01-29T15:55:45;14.38;;;7.57;;
74656;SDS011;63185;45.642;13.764;2023-01-29T15:58:16;12.93;;;7.13;;
74656;SDS011;63185;45.642;13.764;2023-01-29T16:00:51;14.32;;;7.53;;
74656;SDS011;63185;45.642;13.764;2023-01-29T16:03:20;13.98;;;7.47;;
74656;SDS011;63185;45.642;13.764;2023-01-29T16:05:47;15.68;;;8.38;;
74656;SDS011;63185;45.642;13.764;2023-01-29T16:08:14;13.00;;;7.15;;
74656;SDS011;63185;45.642;13.764;2023-01-29T16:10:41;13.18;;;6.90;;
74656;SDS011;63185;45.642;13.764;2023-01-29T16:13:30;13.20;;;7.32;;
74656;SDS011;63185;45.642;13.764;2023-01-29T16:16:00;12.82;;;6.65;;
74656;SDS011;63185;45.642;13.764;2023-01-29T16:18:32;14.75;;;7.60;;
74656;SDS011;63185;45.642;13.764;2023-01-29T16:21:03;15.40;;;8.02;;
74656;SDS011;63185;45.642;13.764;2023-01-29T16:24:05;14.50;;;7.25;;
74656;SDS011;63185;45.642;13.764;2023-01-29T16:26:35;12.57;;;7.25;;
74656;SDS011;63185;45.642;13.764;2023-01-29T16:29:06;13.80;;;7.68;;
74656;SDS011;63185;45.642;13.764;2023-01-29T16:31:34;12.90;;;7.28;;
74656;SDS011;63185;45.642;13.764;2023-01-29T16:34:08;13.40;;;6.85;;
74656;SDS011;63185;45.642;13.764;2023-01-29T16:36:43;14.27;;;7.43;;
74656;SDS011;63185;45.642;13.764;2023-01-29T16:39:16;12.27;;;6.43;;
74656;SDS011;63185;45.642;13.764;2023-01-29T16:41:47;12.98;;;6.95;;
74656;SDS011;63185;45.642;13.764;2023-01-29T16:44:31;13.73;;;7.10;;
74656;SDS011;63185;45.642;13.764;2023-01-29T16:47:13;12.70;;;6.80;;
74656;SDS011;63185;45.642;13.764;2023-01-29T16:52:28;12.45;;;6.43;;
74656;SDS011;63185;45.642;13.764;2023-01-29T16:57:36;15.18;;;7.40;;
74656;SDS011;63185;45.642;13.764;2023-01-29T17:00:05;13.43;;;7.07;;
74656;SDS011;63185;45.642;13.764;2023-01-29T17:02:38;14.65;;;7.93;;
74656;SDS011;63185;45.642;13.764;2023-01-29T17:05:05;14.88;;;8.45;;
74656;SDS011;63185;45.642;13.764;2023-01-29T17:07:34;16.00;;;8.80;;
74656;SDS011;63185;45.642;13.764;2023-01-29T17:10:02;15.32;;;8.32;;
74656;SDS011;63185;45.642;13.764;2023-01-29T17:12:29;15.00;;;7.75;;
74656;SDS011;63185;45.642;13.764;2023-01-29T17:15:00;15.23;;;8.20;;
74656;SDS011;63185;45.642;13.764;2023-01-29T17:17:32;16.83;;;7.95;;
74656;SDS011;63185;45.642;13.764;2023-01-29T17:20:12;14.40;;;7.80;;
74656;SDS011;63185;45.642;13.764;2023-01-29T17:22:39;17.38;;;8.57;;